createdAt,value
2019-03-15T00:01:42.185Z,43.58
2019-03-15T00:04:10.731Z,43.48
2019-03-15T00:06:38.942Z,43.50
2019-03-15T00:09:08.766Z,43.42
2019-03-15T00:11:36.972Z,43.50
2019-03-15T00:14:05.475Z,43.45
2019-03-15T00:16:33.674Z,43.43
2019-03-15T00:19:01.880Z,43.47
2019-03-15T00:21:30.403Z,43.45
2019-03-15T00:23:58.600Z,43.49
2019-03-15T00:26:26.809Z,43.27
2019-03-15T00:28:55.016Z,43.37
2019-03-15T00:31:23.255Z,43.41
2019-03-15T00:33:51.621Z,43.32
2019-03-15T00:36:19.837Z,43.52
2019-03-15T00:38:48.022Z,43.38
2019-03-15T00:41:16.222Z,43.42
2019-03-15T00:43:44.420Z,43.29
2019-03-15T00:46:12.960Z,43.47
2019-03-15T00:48:41.154Z,43.35
2019-03-15T00:51:09.355Z,43.50
2019-03-15T00:53:37.558Z,43.37
2019-03-15T00:56:05.807Z,43.48
2019-03-15T00:58:34.008Z,43.45
2019-03-15T01:01:02.509Z,43.40
2019-03-15T01:03:30.720Z,43.31
2019-03-15T01:05:59.330Z,43.30
2019-03-15T01:08:27.848Z,43.27
2019-03-15T01:10:56.057Z,43.30
2019-03-15T01:13:24.262Z,43.28
2019-03-15T01:15:52.464Z,43.31
2019-03-15T01:18:20.677Z,43.31
2019-03-15T01:20:49.229Z,43.34
2019-03-15T01:23:17.458Z,43.24
2019-03-15T01:25:45.984Z,43.32
2019-03-15T01:28:14.190Z,43.35
2019-03-15T01:30:42.740Z,43.26
2019-03-15T01:33:10.944Z,43.27
2019-03-15T01:35:39.142Z,43.27
2019-03-15T01:38:07.675Z,43.32
2019-03-15T01:40:35.879Z,43.30
2019-03-15T01:43:04.087Z,43.32
2019-03-15T01:45:32.289Z,43.25
2019-03-15T01:48:00.500Z,43.26
2019-03-15T01:50:29.056Z,43.25
2019-03-15T01:52:58.500Z,43.15
2019-03-15T01:55:26.717Z,43.25
2019-03-15T01:57:55.213Z,43.27
2019-03-15T02:00:23.695Z,43.18
2019-03-15T02:02:52.170Z,43.18
2019-03-15T02:05:20.367Z,43.12
2019-03-15T02:07:48.573Z,43.19
2019-03-15T02:10:16.785Z,43.28
2019-03-15T02:12:45.282Z,43.29
2019-03-15T02:15:13.480Z,43.19
2019-03-15T02:17:41.682Z,43.24
2019-03-15T02:20:09.881Z,43.21
2019-03-15T02:22:38.382Z,43.20
2019-03-15T02:25:06.585Z,43.21
2019-03-15T02:27:34.789Z,43.19
2019-03-15T02:30:03.727Z,43.13
2019-03-15T02:32:31.927Z,43.16
2019-03-15T02:35:00.575Z,43.13
2019-03-15T02:37:28.762Z,43.12
2019-03-15T02:39:56.960Z,43.17
2019-03-15T02:42:26.209Z,43.17
2019-03-15T02:44:54.562Z,43.13
2019-03-15T02:47:22.763Z,43.19
2019-03-15T02:49:50.965Z,43.09
2019-03-15T02:52:19.181Z,43.11
2019-03-15T02:54:47.723Z,43.11
2019-03-15T02:57:15.929Z,43.08
2019-03-15T02:59:44.130Z,43.16
2019-03-15T03:02:12.332Z,43.05
2019-03-15T03:04:42.563Z,43.11
2019-03-15T03:07:10.750Z,43.12
2019-03-15T03:09:39.324Z,43.09
2019-03-15T03:12:07.509Z,43.09
2019-03-15T03:14:35.722Z,43.08
2019-03-15T03:17:03.927Z,43.10
2019-03-15T03:19:32.124Z,42.96
2019-03-15T03:22:00.326Z,43.07
2019-03-15T03:24:28.522Z,43.07
2019-03-15T03:26:57.046Z,43.19
2019-03-15T03:29:25.233Z,43.08
2019-03-15T03:31:53.437Z,43.08
2019-03-15T03:34:21.648Z,43.04
2019-03-15T03:36:50.158Z,43.01
2019-03-15T03:39:18.360Z,43.02
2019-03-15T03:41:46.902Z,42.99
2019-03-15T03:44:15.111Z,43.06
2019-03-15T03:46:43.562Z,42.98
2019-03-15T03:49:11.761Z,43.03
2019-03-15T03:51:39.964Z,43.01
2019-03-15T03:54:08.168Z,43.02
2019-03-15T03:56:36.655Z,43.01
2019-03-15T03:59:04.854Z,42.93
2019-03-15T04:01:33.429Z,42.93
2019-03-15T04:04:01.626Z,42.95
2019-03-15T04:06:29.825Z,42.98
2019-03-15T04:08:58.029Z,42.98
2019-03-15T04:11:26.241Z,42.95
2019-03-15T04:13:54.446Z,42.93
2019-03-15T04:16:22.647Z,42.91
2019-03-15T04:18:51.139Z,42.96
2019-03-15T04:21:19.340Z,42.98
2019-03-15T04:23:47.547Z,42.95
2019-03-15T04:26:15.745Z,42.97
2019-03-15T04:28:43.965Z,42.91
2019-03-15T04:31:12.189Z,42.95
2019-03-15T04:33:40.420Z,42.92
2019-03-15T04:36:08.604Z,42.89
2019-03-15T04:38:36.800Z,42.84
2019-03-15T04:41:05.314Z,42.83
2019-03-15T04:43:33.796Z,42.87
2019-03-15T04:46:01.996Z,42.92
2019-03-15T04:48:30.559Z,42.85
2019-03-15T04:50:59.022Z,42.89
2019-03-15T04:53:27.228Z,42.82
2019-03-15T04:55:55.437Z,42.85
2019-03-15T04:58:23.639Z,42.84
2019-03-15T05:00:52.137Z,42.86
2019-03-15T05:03:20.353Z,42.91
2019-03-15T05:06:01.937Z,42.79
2019-03-15T05:08:18.475Z,42.73
2019-03-15T05:10:46.689Z,42.89
2019-03-15T05:13:15.257Z,42.88
2019-03-15T05:15:43.746Z,42.79
2019-03-15T05:18:12.323Z,42.67
2019-03-15T05:20:40.806Z,42.75
2019-03-15T05:23:09.285Z,42.82
2019-03-15T05:25:37.490Z,42.75
2019-03-15T05:28:05.695Z,42.75
2019-03-15T05:30:33.891Z,42.74
2019-03-15T05:33:02.133Z,42.86
2019-03-15T05:35:30.669Z,42.82
2019-03-15T05:37:59.155Z,42.70
2019-03-15T05:40:27.393Z,42.76
2019-03-15T05:42:55.590Z,42.87
2019-03-15T05:45:23.789Z,42.69
2019-03-15T05:47:52.006Z,42.72
2019-03-15T05:50:20.217Z,42.72
2019-03-15T05:52:48.489Z,42.71
2019-03-15T05:55:16.979Z,42.73
2019-03-15T05:57:45.176Z,42.73
2019-03-15T06:00:14.341Z,42.72
2019-03-15T06:02:42.827Z,42.66
2019-03-15T06:05:11.091Z,42.61
2019-03-15T06:07:39.584Z,42.69
2019-03-15T06:10:10.333Z,42.75
2019-03-15T06:12:38.906Z,42.74
2019-03-15T06:15:11.085Z,42.74
2019-03-15T06:17:39.292Z,42.67
2019-03-15T06:20:10.516Z,42.71
2019-03-15T06:22:39.069Z,42.71
2019-03-15T06:25:08.410Z,42.82
2019-03-15T06:27:36.627Z,41.78
2019-03-15T06:30:08.403Z,42.60
2019-03-15T06:32:36.606Z,42.85
2019-03-15T06:35:05.262Z,42.86
2019-03-15T06:37:33.745Z,42.81
2019-03-15T06:40:02.934Z,42.87
2019-03-15T06:42:31.234Z,42.86
2019-03-15T06:44:59.446Z,42.85
2019-03-15T06:47:27.655Z,42.99
2019-03-15T06:49:56.262Z,43.05
2019-03-15T06:52:24.478Z,43.00
2019-03-15T06:54:52.685Z,42.96
2019-03-15T06:57:20.902Z,43.00
2019-03-15T06:59:49.124Z,42.90
2019-03-15T07:02:17.341Z,42.88
2019-03-15T07:04:45.553Z,42.96
2019-03-15T07:07:15.190Z,42.93
2019-03-15T07:09:43.693Z,43.05
2019-03-15T07:12:12.166Z,44.50
2019-03-15T07:14:40.386Z,48.39
2019-03-15T07:17:08.922Z,48.64
2019-03-15T07:19:37.413Z,48.69
2019-03-15T07:22:05.989Z,48.82
2019-03-15T07:24:34.196Z,49.14
2019-03-15T07:27:11.983Z,49.22
2019-03-15T07:29:34.901Z,49.21
2019-03-15T07:32:03.121Z,48.99
2019-03-15T07:34:31.336Z,48.85
2019-03-15T07:36:59.863Z,48.84
2019-03-15T07:39:28.080Z,48.74
2019-03-15T07:41:56.643Z,48.41
2019-03-15T07:44:24.850Z,48.23
2019-03-15T07:46:53.052Z,48.09
2019-03-15T07:49:21.264Z,48.14
2019-03-15T07:51:49.480Z,49.01
2019-03-15T07:54:17.973Z,51.41
2019-03-15T07:56:46.466Z,53.25
2019-03-15T07:59:14.682Z,53.89
2019-03-15T08:01:43.223Z,53.41
2019-03-15T08:04:17.023Z,54.15
2019-03-15T08:06:41.369Z,54.05
2019-03-15T08:09:09.900Z,54.21
2019-03-15T08:11:38.115Z,53.70
2019-03-15T08:14:06.318Z,54.17
2019-03-15T08:16:34.789Z,53.89
2019-03-15T08:19:05.012Z,53.55
2019-03-15T08:21:32.953Z,54.04
2019-03-15T08:24:01.168Z,53.69
2019-03-15T08:26:30.350Z,53.66
2019-03-15T08:28:58.966Z,53.53
2019-03-15T08:31:27.189Z,53.68
2019-03-15T08:33:55.717Z,53.55
2019-03-15T08:36:24.303Z,53.36
2019-03-15T08:38:52.897Z,53.16
2019-03-15T08:41:21.111Z,53.08
2019-03-15T08:43:49.324Z,52.53
2019-03-15T08:46:17.534Z,52.94
2019-03-15T08:48:45.746Z,52.77
2019-03-15T08:51:13.961Z,52.39
2019-03-15T08:53:42.167Z,52.73
2019-03-15T08:56:14.092Z,52.34
2019-03-15T08:58:40.939Z,52.32
2019-03-15T09:01:10.925Z,52.09
2019-03-15T09:03:39.103Z,52.03
2019-03-15T09:06:07.319Z,51.98
2019-03-15T09:08:37.338Z,51.74
2019-03-15T09:11:05.803Z,51.75
2019-03-15T09:13:34.021Z,51.38
2019-03-15T09:16:02.568Z,51.54
2019-03-15T09:18:30.777Z,51.32
2019-03-15T09:20:58.990Z,51.20
2019-03-15T09:23:27.199Z,51.02
2019-03-15T09:25:55.425Z,50.95
2019-03-15T09:28:23.934Z,50.70
2019-03-15T09:30:52.148Z,50.80
2019-03-15T09:33:20.693Z,50.82
2019-03-15T09:35:48.905Z,50.64
2019-03-15T09:38:17.109Z,50.52
2019-03-15T09:40:45.325Z,50.44
2019-03-15T09:43:13.539Z,50.53
2019-03-15T09:45:41.751Z,50.47
2019-03-15T09:48:09.964Z,50.40
2019-03-15T09:50:50.735Z,50.44
2019-03-15T09:53:08.111Z,50.28
2019-03-15T09:55:36.342Z,49.99
2019-03-15T09:58:04.554Z,50.28
2019-03-15T10:00:33.178Z,50.02
2019-03-15T10:03:01.767Z,50.07
2019-03-15T10:05:30.328Z,50.09
2019-03-15T10:07:58.921Z,50.07
2019-03-15T10:10:27.404Z,49.80
2019-03-15T10:13:05.768Z,49.80
2019-03-15T10:15:26.597Z,49.75
2019-03-15T10:17:55.407Z,49.69
2019-03-15T10:20:23.613Z,49.71
2019-03-15T10:23:05.475Z,49.54
2019-03-15T10:25:21.761Z,49.53
2019-03-15T10:27:49.968Z,49.32
2019-03-15T10:30:20.176Z,49.42
2019-03-15T10:32:48.380Z,49.40
2019-03-15T10:35:16.907Z,49.36
2019-03-15T10:37:45.384Z,49.16
2019-03-15T10:40:23.706Z,49.15
2019-03-15T10:42:55.211Z,49.19
2019-03-15T10:45:22.192Z,49.23
2019-03-15T10:47:50.400Z,49.27
2019-03-15T10:50:20.726Z,49.16
2019-03-15T10:52:48.853Z,49.21
2019-03-15T10:55:20.362Z,49.15
2019-03-15T10:57:46.999Z,49.09
2019-03-15T11:00:17.671Z,49.07
2019-03-15T11:02:46.175Z,49.09
2019-03-15T11:05:14.379Z,49.08
2019-03-15T11:07:42.595Z,49.05
2019-03-15T11:10:11.927Z,49.00
2019-03-15T11:12:40.504Z,48.86
2019-03-15T11:15:11.965Z,48.89
2019-03-15T11:17:40.193Z,48.76
2019-03-15T11:20:09.734Z,48.77
2019-03-15T11:22:37.944Z,48.84
2019-03-15T11:25:08.161Z,48.79
2019-03-15T11:27:36.378Z,48.77
2019-03-15T11:30:06.612Z,48.77
2019-03-15T11:32:34.821Z,48.74
2019-03-15T11:35:03.017Z,48.71
2019-03-15T11:37:31.223Z,48.71
2019-03-15T11:39:59.429Z,48.74
2019-03-15T11:42:27.920Z,48.70
2019-03-15T11:44:56.128Z,48.74
2019-03-15T11:47:24.340Z,48.85
2019-03-15T11:49:52.837Z,48.75
2019-03-15T11:52:21.048Z,48.80
2019-03-15T11:54:49.954Z,48.75
2019-03-15T11:57:18.613Z,48.92
2019-03-15T11:59:47.172Z,48.89
2019-03-15T12:02:15.645Z,48.98
2019-03-15T12:04:43.850Z,48.92
2019-03-15T12:07:12.061Z,48.93
2019-03-15T12:09:41.053Z,48.95
2019-03-15T12:12:09.471Z,48.97
2019-03-15T12:14:41.264Z,49.11
2019-03-15T12:17:07.971Z,49.00
2019-03-15T12:19:36.554Z,49.24
2019-03-15T12:22:06.439Z,49.12
2019-03-15T12:24:34.701Z,49.24
2019-03-15T12:27:03.222Z,49.32
2019-03-15T12:29:31.425Z,49.20
2019-03-15T12:31:59.624Z,49.25
2019-03-15T12:34:27.842Z,49.35
2019-03-15T12:36:56.037Z,49.40
2019-03-15T12:39:24.248Z,49.41
2019-03-15T12:41:52.453Z,49.53
2019-03-15T12:44:20.949Z,49.61
2019-03-15T12:46:49.165Z,49.76
2019-03-15T12:49:17.376Z,49.82
2019-03-15T12:51:47.987Z,49.89
2019-03-15T12:54:16.200Z,49.90
2019-03-15T12:56:53.562Z,49.84
2019-03-15T12:59:14.339Z,49.72
2019-03-15T13:01:42.552Z,49.82
2019-03-15T13:04:10.867Z,49.55
2019-03-15T13:06:39.377Z,49.88
2019-03-15T13:09:07.531Z,50.08
2019-03-15T13:11:35.732Z,50.26
2019-03-15T13:14:03.938Z,50.54
2019-03-15T13:16:32.431Z,50.58
2019-03-15T13:19:00.928Z,50.67
2019-03-15T13:21:29.384Z,50.88
2019-03-15T13:23:57.597Z,50.89
2019-03-15T13:26:28.860Z,51.00
2019-03-15T13:28:55.737Z,51.30
2019-03-15T13:31:23.947Z,51.44
2019-03-15T13:33:52.143Z,51.31
2019-03-15T13:36:20.689Z,51.46
2019-03-15T13:38:48.900Z,51.55
2019-03-15T13:41:17.112Z,51.56
2019-03-15T13:43:45.314Z,51.50
2019-03-15T13:46:13.797Z,51.40
2019-03-15T13:48:42.011Z,51.35
2019-03-15T13:51:10.213Z,51.43
2019-03-15T13:53:38.721Z,51.16
2019-03-15T13:56:07.197Z,51.19
2019-03-15T13:58:35.675Z,51.07
2019-03-15T14:01:03.882Z,51.16
2019-03-15T14:03:32.351Z,51.10
2019-03-15T14:06:00.552Z,50.97
2019-03-15T14:08:28.757Z,50.99
2019-03-15T14:10:57.265Z,50.96
2019-03-15T14:13:25.466Z,50.93
2019-03-15T14:15:53.677Z,50.91
2019-03-15T14:18:22.016Z,51.00
2019-03-15T14:20:50.175Z,51.00
2019-03-15T14:23:18.364Z,51.01
2019-03-15T14:25:46.576Z,51.03
2019-03-15T14:28:14.772Z,51.04
2019-03-15T14:30:42.977Z,50.98
2019-03-15T14:33:11.614Z,50.83
2019-03-15T14:35:39.768Z,50.83
2019-03-15T14:38:08.106Z,50.75
2019-03-15T14:40:36.307Z,50.76
2019-03-15T14:43:04.889Z,50.68
2019-03-15T14:45:33.054Z,50.73
2019-03-15T14:48:01.253Z,50.57
2019-03-15T14:50:29.475Z,50.55
2019-03-15T14:52:57.679Z,50.59
2019-03-15T14:55:25.890Z,50.50
2019-03-15T14:57:54.104Z,50.54
2019-03-15T15:00:22.377Z,50.42
2019-03-15T15:02:50.572Z,50.48
2019-03-15T15:05:18.784Z,50.32
2019-03-15T15:07:47.051Z,50.30
2019-03-15T15:10:17.160Z,50.36
2019-03-15T15:12:45.612Z,50.28
2019-03-15T15:15:15.180Z,50.26
2019-03-15T15:17:43.401Z,50.19
2019-03-15T15:20:12.124Z,50.13
2019-03-15T15:22:40.332Z,50.09
2019-03-15T15:25:15.089Z,50.01
2019-03-15T15:27:42.653Z,49.99
2019-03-15T15:30:15.688Z,49.96
2019-03-15T15:32:44.264Z,49.91
2019-03-15T15:35:13.021Z,49.87
2019-03-15T15:37:41.228Z,49.84
2019-03-15T15:40:18.776Z,49.84
2019-03-15T15:42:47.344Z,50.42
2019-03-15T15:45:15.811Z,50.34
2019-03-15T15:47:44.008Z,50.19
2019-03-15T15:50:13.450Z,50.32
2019-03-15T15:52:41.972Z,50.37
2019-03-15T15:55:12.481Z,50.53
2019-03-15T15:57:40.986Z,50.43
2019-03-15T16:00:15.703Z,50.53
2019-03-15T16:02:43.277Z,50.34
2019-03-15T16:05:11.751Z,50.29
2019-03-15T16:07:39.953Z,50.25
2019-03-15T16:10:13.064Z,50.30
2019-03-15T16:12:41.272Z,50.23
2019-03-15T16:15:11.881Z,50.16
2019-03-15T16:17:40.104Z,50.28
2019-03-15T16:20:11.946Z,50.14
2019-03-15T16:22:40.153Z,50.16
2019-03-15T16:25:09.757Z,50.13
2019-03-15T16:27:37.972Z,50.17
2019-03-15T16:30:09.687Z,50.22
2019-03-15T16:32:37.896Z,50.03
2019-03-15T16:35:08.455Z,50.03
2019-03-15T16:37:36.953Z,49.92
2019-03-15T16:40:07.805Z,49.88
2019-03-15T16:42:36.021Z,49.84
2019-03-15T16:45:10.123Z,49.79
2019-03-15T16:47:38.399Z,49.83
2019-03-15T16:50:09.757Z,49.71
2019-03-15T16:52:38.279Z,50.42
2019-03-15T16:55:09.230Z,50.21
2019-03-15T16:57:37.441Z,49.72
2019-03-15T17:00:11.711Z,49.91
2019-03-15T17:02:40.200Z,49.73
2019-03-15T17:05:10.260Z,49.63
2019-03-15T17:07:38.477Z,49.66
2019-03-15T17:10:11.899Z,49.63
2019-03-15T17:12:40.119Z,49.74
2019-03-15T17:15:20.536Z,49.63
2019-03-15T17:17:49.119Z,49.73
2019-03-15T17:20:17.320Z,49.80
2019-03-15T17:22:45.621Z,49.77
2019-03-15T17:25:13.826Z,49.56
2019-03-15T17:27:42.090Z,49.53
2019-03-15T17:30:13.783Z,49.52
2019-03-15T17:32:42.013Z,49.39
2019-03-15T17:35:12.019Z,49.26
2019-03-15T17:37:40.547Z,49.29
2019-03-15T17:40:14.076Z,49.39
2019-03-15T17:42:42.264Z,49.37
2019-03-15T17:45:11.727Z,49.35
2019-03-15T17:47:39.913Z,49.01
2019-03-15T17:50:14.322Z,49.16
2019-03-15T17:52:42.787Z,48.96
2019-03-15T17:55:11.195Z,49.22
2019-03-15T17:57:39.640Z,49.07
2019-03-15T18:00:24.306Z,49.13
2019-03-15T18:02:52.777Z,49.25
2019-03-15T18:05:20.990Z,49.44
2019-03-15T18:07:49.550Z,49.50
2019-03-15T18:10:17.755Z,49.41
2019-03-15T18:12:45.997Z,49.28
2019-03-15T18:15:14.203Z,49.18
2019-03-15T18:17:42.424Z,48.86
2019-03-15T18:20:11.046Z,49.00
2019-03-15T18:22:39.258Z,49.10
2019-03-15T18:25:08.617Z,49.00
2019-03-15T18:27:36.827Z,48.82
2019-03-15T18:30:11.294Z,48.91
2019-03-15T18:32:39.520Z,48.97
2019-03-15T18:35:09.213Z,48.88
2019-03-15T18:37:37.442Z,48.77
2019-03-15T18:40:16.984Z,48.51
2019-03-15T18:42:45.468Z,48.94
2019-03-15T18:45:15.973Z,48.66
2019-03-15T18:47:44.177Z,48.70
2019-03-15T18:50:20.793Z,48.55
2019-03-15T18:52:48.991Z,48.47
2019-03-15T18:55:17.195Z,48.36
2019-03-15T18:57:45.403Z,48.38
2019-03-15T19:00:15.950Z,48.45
2019-03-15T19:02:44.152Z,48.94
2019-03-15T19:05:12.353Z,49.09
2019-03-15T19:07:40.920Z,49.02
2019-03-15T19:10:11.326Z,48.56
2019-03-15T19:12:39.835Z,48.52
2019-03-15T19:15:11.178Z,48.39
2019-03-15T19:17:39.658Z,48.38
2019-03-15T19:20:13.773Z,48.37
2019-03-15T19:22:41.996Z,48.45
2019-03-15T19:25:11.648Z,48.43
2019-03-15T19:27:39.858Z,48.56
2019-03-15T19:30:17.426Z,48.59
2019-03-15T19:32:45.636Z,48.98
2019-03-15T19:35:13.847Z,49.03
2019-03-15T19:37:42.058Z,48.95
2019-03-15T19:40:20.232Z,49.17
2019-03-15T19:42:49.983Z,49.31
2019-03-15T19:45:18.549Z,49.20
2019-03-15T19:47:46.754Z,49.34
2019-03-15T19:50:21.539Z,49.67
2019-03-15T19:52:49.114Z,49.39
2019-03-15T19:55:17.326Z,49.48
2019-03-15T19:57:45.870Z,49.22
2019-03-15T20:00:17.333Z,48.91
2019-03-15T20:02:45.613Z,49.01
2019-03-15T20:05:13.898Z,48.95
2019-03-15T20:07:42.140Z,48.83
2019-03-15T20:10:16.127Z,48.96
2019-03-15T20:12:42.622Z,48.82
2019-03-15T20:15:12.675Z,48.86
2019-03-15T20:17:40.886Z,49.17
2019-03-15T20:20:15.320Z,48.85
2019-03-15T20:22:43.892Z,48.75
2019-03-15T20:25:18.351Z,48.88
2019-03-15T20:27:46.899Z,48.74
2019-03-15T20:30:26.251Z,48.61
2019-03-15T20:32:55.548Z,48.51
2019-03-15T20:35:23.760Z,48.52
2019-03-15T20:37:52.043Z,48.40
2019-03-15T20:40:20.250Z,48.30
2019-03-15T20:42:48.460Z,48.21
2019-03-15T20:45:24.032Z,48.15
2019-03-15T20:47:52.233Z,48.10
2019-03-15T20:50:20.440Z,48.04
2019-03-15T20:52:49.009Z,47.96
2019-03-15T20:55:17.214Z,48.00
2019-03-15T20:57:45.762Z,48.00
2019-03-15T21:00:34.301Z,47.83
2019-03-15T21:02:51.018Z,47.84
2019-03-15T21:05:19.219Z,47.52
2019-03-15T21:07:47.785Z,47.48
2019-03-15T21:10:19.515Z,47.33
2019-03-15T21:12:47.715Z,47.36
2019-03-15T21:15:16.190Z,47.39
2019-03-15T21:17:44.400Z,47.21
2019-03-15T21:20:18.174Z,47.13
2019-03-15T21:22:46.747Z,47.04
2019-03-15T21:25:14.951Z,47.19
2019-03-15T21:27:52.815Z,46.94
2019-03-15T21:30:15.692Z,46.98
2019-03-15T21:32:43.888Z,46.90
2019-03-15T21:35:12.101Z,46.81
2019-03-15T21:37:40.294Z,46.74
2019-03-15T21:40:11.745Z,46.68
2019-03-15T21:42:39.946Z,46.41
2019-03-15T21:45:11.986Z,46.39
2019-03-15T21:47:40.190Z,46.27
2019-03-15T21:50:13.091Z,46.23
2019-03-15T21:52:41.316Z,46.11
2019-03-15T21:55:09.527Z,46.09
2019-03-15T21:57:37.730Z,46.17
2019-03-15T22:00:09.350Z,45.80
2019-03-15T22:02:37.822Z,45.78
2019-03-15T22:05:07.262Z,45.90
2019-03-15T22:07:35.529Z,45.66
2019-03-15T22:10:05.608Z,45.50
2019-03-15T22:12:33.809Z,45.59
2019-03-15T22:15:02.103Z,45.51
2019-03-15T22:17:30.662Z,45.42
2019-03-15T22:19:59.224Z,45.31
2019-03-15T22:22:27.703Z,45.42
2019-03-15T22:24:55.925Z,45.06
2019-03-15T22:27:24.191Z,45.26
2019-03-15T22:29:53.669Z,45.30
2019-03-15T22:32:22.156Z,45.10
2019-03-15T22:34:52.014Z,45.30
2019-03-15T22:37:20.458Z,45.26
2019-03-15T22:39:50.950Z,45.21
2019-03-15T22:42:19.146Z,45.07
2019-03-15T22:44:47.354Z,44.96
2019-03-15T22:47:15.562Z,45.10
2019-03-15T22:49:44.020Z,45.00
2019-03-15T22:52:12.225Z,44.96
2019-03-15T22:54:40.437Z,44.93
2019-03-15T22:57:08.640Z,45.11
2019-03-15T22:59:36.837Z,45.02
2019-03-15T23:02:05.314Z,44.97
2019-03-15T23:04:33.521Z,44.75
2019-03-15T23:07:01.724Z,44.62
2019-03-15T23:09:30.257Z,44.84
2019-03-15T23:11:58.468Z,44.71
2019-03-15T23:14:27.016Z,44.71
2019-03-15T23:16:55.219Z,44.62
2019-03-15T23:19:23.779Z,44.68
2019-03-15T23:21:51.991Z,44.52
2019-03-15T23:24:20.190Z,44.45
2019-03-15T23:26:48.397Z,44.42
2019-03-15T23:29:16.979Z,44.38
2019-03-15T23:31:45.182Z,44.61
2019-03-15T23:34:13.390Z,44.55
2019-03-15T23:36:41.911Z,44.44
2019-03-15T23:39:10.112Z,44.44
2019-03-15T23:41:38.321Z,44.17
2019-03-15T23:44:06.529Z,44.38
2019-03-15T23:46:35.014Z,44.23
2019-03-15T23:49:03.217Z,44.17
2019-03-15T23:51:31.421Z,44.17
2019-03-15T23:53:59.637Z,44.25
2019-03-15T23:56:28.122Z,44.25
2019-03-15T23:58:56.319Z,44.18
